Time;durP1;ratioP1;P1;durP2;ratioP2;P2;SDS_P1;SDS_P2;PMS_P1;PMS_P2;Temp;Humidity;BMP_temperature;BMP_pressure;BME280_temperature;BME280_humidity;BME280_pressure;Samples;Min_cycle;Max_cycle;Signal;HPM_P1;HPM_P2
2023/04/05 00:01:27;;;;;;;10.77;5.93;;;;;;;2.12;75.04;102130.75;5004012;28;20034;-73
2023/04/05 00:03:54;;;;;;;14.82;6.18;;;;;;;2.06;75.42;102128.50;4993336;28;20029;-73
2023/04/05 00:06:30;;;;;;;13.60;6.18;;;;;;;2.02;75.93;102133.81;4998823;28;20165;-74
2023/04/05 00:09:00;;;;;;;12.02;5.68;;;;;;;1.98;76.15;102133.13;5016349;28;21032;-74
2023/04/05 00:11:28;;;;;;;14.85;6.00;;;;;;;1.93;76.14;102135.88;4995747;28;20034;-73
2023/04/05 00:13:54;;;;;;;13.50;5.82;;;;;;;1.90;75.97;102128.34;5015026;28;20034;-74
2023/04/05 00:16:20;;;;;;;22.58;6.93;;;;;;;1.88;76.23;102129.28;4993665;28;20728;-73
2023/04/05 00:18:50;;;;;;;14.68;6.20;;;;;;;1.80;76.17;102116.84;4999673;28;20045;-73
2023/04/05 00:21:22;;;;;;;15.13;6.68;;;;;;;1.74;76.50;102117.94;4992882;28;20065;-74
2023/04/05 00:23:50;;;;;;;17.25;7.07;;;;;;;1.67;76.82;102108.03;4998684;28;20034;-74
2023/04/05 00:26:16;;;;;;;16.90;5.90;;;;;;;1.61;77.40;102113.44;4996070;28;20046;-74
2023/04/05 00:28:49;;;;;;;17.10;6.95;;;;;;;1.55;77.67;102122.19;4997072;28;20586;-73
2023/04/05 00:31:16;;;;;;;13.52;7.00;;;;;;;1.52;78.08;102123.13;4991912;28;20052;-74
2023/04/05 00:33:41;;;;;;;15.43;6.40;;;;;;;1.48;78.61;102129.28;5003951;28;20041;-74
2023/04/05 00:36:12;;;;;;;15.43;6.78;;;;;;;1.48;78.96;102124.16;4990647;28;20046;-74
2023/04/05 00:38:39;;;;;;;15.25;6.30;;;;;;;1.44;79.13;102134.59;5003829;28;21668;-74
2023/04/05 00:41:04;;;;;;;14.00;7.05;;;;;;;1.41;78.88;102132.16;5018094;28;20033;-74
2023/04/05 00:43:30;;;;;;;17.73;7.10;;;;;;;1.38;78.86;102128.00;5008415;28;20484;-74
2023/04/05 00:45:55;;;;;;;17.60;7.57;;;;;;;1.38;79.37;102127.19;5000167;28;20033;-73
2023/04/05 00:48:21;;;;;;;14.48;7.63;;;;;;;1.34;79.29;102116.25;4991425;28;20140;-74
2023/04/05 00:50:49;;;;;;;18.98;8.30;;;;;;;1.31;79.42;102114.63;5009581;28;20041;-73
2023/04/05 00:53:18;;;;;;;16.20;7.57;;;;;;;1.29;80.37;102111.31;4994373;28;20404;-74
2023/04/05 00:55:46;;;;;;;21.55;7.95;;;;;;;1.27;80.17;102102.06;5006532;28;20053;-76
2023/04/05 00:58:12;;;;;;;14.45;7.07;;;;;;;1.27;80.72;102102.06;5025937;28;20476;-74
2023/04/05 01:00:38;;;;;;;14.65;7.45;;;;;;;1.26;80.83;102102.94;4993721;28;20052;-73
2023/04/05 01:03:06;;;;;;;22.67;7.95;;;;;;;1.23;81.17;102095.44;4991058;28;20500;-73
2023/04/05 01:05:52;;;;;;;21.58;7.28;;;;;;;1.21;81.37;102094.66;5023300;28;20044;-73
2023/04/05 01:08:30;;;;;;;15.43;7.40;;;;;;;1.17;82.04;102102.44;5027791;28;20026;-73
2023/04/05 01:11:01;;;;;;;19.50;7.72;;;;;;;1.12;82.15;102103.53;5008366;28;20723;-75
2023/04/05 01:13:29;;;;;;;18.35;8.45;;;;;;;1.04;81.75;102101.28;5008610;28;20523;-73
2023/04/05 01:15:55;;;;;;;19.13;8.98;;;;;;;1.00;82.33;102104.00;5006099;28;20072;-73
2023/04/05 01:18:24;;;;;;;21.83;9.65;;;;;;;0.97;82.36;102100.69;5008682;28;20115;-74
2023/04/05 01:21:19;;;;;;;22.08;9.32;;;;;;;0.95;82.29;102099.09;5022663;28;20125;-73
2023/04/05 01:24:11;;;;;;;18.80;8.77;;;;;;;0.92;82.49;102089.84;5003427;28;20107;-74
2023/04/05 01:27:03;;;;;;;18.27;8.63;;;;;;;0.90;82.54;102094.16;4999877;28;20038;-74
2023/04/05 01:29:49;;;;;;;21.48;8.57;;;;;;;0.88;83.06;102092.56;5002080;28;20042;-73
2023/04/05 01:32:39;;;;;;;23.00;9.50;;;;;;;0.83;82.85;102089.38;5008794;28;20033;-73
2023/04/05 01:35:12;;;;;;;24.33;9.15;;;;;;;0.78;83.35;102080.16;5029650;28;20033;-74
2023/04/05 01:37:39;;;;;;;16.25;8.70;;;;;;;0.74;83.84;102083.75;5009570;28;20038;-73
2023/04/05 01:40:07;;;;;;;16.95;8.07;;;;;;;0.72;83.64;102085.53;4989404;28;20030;-73
2023/04/05 01:42:34;;;;;;;20.77;8.57;;;;;;;0.70;84.04;102081.38;5018750;28;20064;-73
2023/04/05 01:45:00;;;;;;;16.00;8.45;;;;;;;0.67;84.24;102079.75;5005479;28;20069;-73
2023/04/05 01:47:25;;;;;;;20.13;7.93;;;;;;;0.65;84.46;102080.72;5003359;28;20034;-74
2023/04/05 01:49:51;;;;;;;17.08;8.80;;;;;;;0.61;83.85;102077.47;5009676;28;20033;-74
2023/04/05 01:52:16;;;;;;;20.83;9.18;;;;;;;0.57;84.42;102076.75;5007481;28;20045;-73
2023/04/05 01:54:43;;;;;;;19.02;8.55;;;;;;;0.54;84.31;102081.13;5003081;28;20026;-73
2023/04/05 01:57:08;;;;;;;18.08;8.65;;;;;;;0.46;84.21;102080.63;5006681;28;20081;-74
2023/04/05 01:59:34;;;;;;;18.83;9.02;;;;;;;0.41;84.72;102079.94;5005566;28;20095;-73
2023/04/05 02:02:00;;;;;;;19.73;8.30;;;;;;;0.32;84.60;102076.03;5011007;28;20461;-73
2023/04/05 02:04:26;;;;;;;18.25;8.23;;;;;;;0.28;85.37;102075.31;4989660;28;20032;-74
2023/04/05 02:06:52;;;;;;;15.18;7.75;;;;;;;0.26;85.71;102076.25;4984882;28;20030;-73
2023/04/05 02:09:17;;;;;;;19.85;9.60;;;;;;;0.24;85.25;102072.94;5008187;28;20034;-73
2023/04/05 02:11:44;;;;;;;21.58;8.85;;;;;;;0.19;85.56;102073.13;5008329;28;20030;-73
2023/04/05 02:14:11;;;;;;;25.08;9.35;;;;;;;0.18;85.79;102066.34;4992991;28;20036;-74
2023/04/05 02:16:36;;;;;;;18.38;8.73;;;;;;;0.17;85.92;102072.31;5006555;28;20065;-73
2023/04/05 02:19:01;;;;;;;18.77;8.32;;;;;;;0.13;85.99;102070.78;4994627;28;20080;-73
2023/04/05 02:21:27;;;;;;;19.05;8.75;;;;;;;0.07;86.15;102064.19;5003176;28;20030;-73
2023/04/05 02:23:53;;;;;;;19.75;8.13;;;;;;;0.04;86.10;102066.88;4990871;28;20042;-73
2023/04/05 02:26:20;;;;;;;18.25;9.10;;;;;;;0.02;86.76;102066.09;5004841;28;20038;-72
2023/04/05 02:28:46;;;;;;;17.77;8.80;;;;;;;-0.01;86.61;102059.38;5005663;28;20037;-72
2023/04/05 02:31:12;;;;;;;17.95;8.20;;;;;;;0.00;87.28;102060.22;5003313;28;20041;-72
2023/04/05 02:33:40;;;;;;;19.58;8.63;;;;;;;-0.02;87.19;102070.47;5002845;28;20146;-73
2023/04/05 02:36:10;;;;;;;20.73;8.40;;;;;;;-0.04;87.27;102064.59;5002498;28;20061;-72
2023/04/05 02:38:35;;;;;;;28.48;9.15;;;;;;;-0.03;87.52;102060.31;4999795;28;20029;-72
2023/04/05 02:41:01;;;;;;;18.00;8.75;;;;;;;-0.03;87.60;102065.44;5019133;28;20088;-72
2023/04/05 02:43:27;;;;;;;20.70;8.88;;;;;;;-0.04;87.77;102074.81;4987352;28;20036;-72
2023/04/05 02:45:53;;;;;;;22.75;8.35;;;;;;;-0.04;87.73;102069.72;4993646;28;20049;-71
2023/04/05 02:48:19;;;;;;;23.95;10.25;;;;;;;-0.04;87.78;102068.84;4989733;28;20030;-72
2023/04/05 02:50:50;;;;;;;19.17;9.00;;;;;;;-0.07;88.05;102064.72;5018663;28;20030;-73
2023/04/05 02:53:17;;;;;;;22.73;8.07;;;;;;;-0.11;88.38;102068.25;5004664;28;20828;-73
2023/04/05 02:55:56;;;;;;;20.50;8.25;;;;;;;-0.13;88.23;102064.94;5003948;28;20057;-72
2023/04/05 02:58:23;;;;;;;21.23;9.02;;;;;;;-0.14;87.89;102062.44;5000802;28;20041;-72
2023/04/05 03:00:50;;;;;;;18.67;8.57;;;;;;;-0.17;88.00;102063.41;5004535;28;20030;-72
2023/04/05 03:03:20;;;;;;;16.05;7.95;;;;;;;-0.21;88.47;102065.22;5003437;28;20393;-73
2023/04/05 03:05:47;;;;;;;21.40;7.93;;;;;;;-0.26;88.60;102059.44;4985145;28;20038;-72
2023/04/05 03:08:18;;;;;;;14.10;7.63;;;;;;;-0.29;88.29;102051.06;5003117;28;20040;-72
2023/04/05 03:10:51;;;;;;;17.30;7.82;;;;;;;-0.30;88.01;102064.69;5005971;28;20614;-73
2023/04/05 03:13:17;;;;;;;17.88;8.15;;;;;;;-0.32;88.41;102062.22;5004755;28;20030;-72
2023/04/05 03:15:43;;;;;;;18.08;8.23;;;;;;;-0.33;88.63;102064.81;5005380;28;20030;-71
2023/04/05 03:18:12;;;;;;;19.17;8.68;;;;;;;-0.34;88.51;102056.34;4997902;28;20026;-72
2023/04/05 03:20:40;;;;;;;15.30;7.85;;;;;;;-0.40;88.44;102052.31;5001850;28;20042;-72
2023/04/05 03:23:14;;;;;;;19.77;7.72;;;;;;;-0.46;88.88;102046.56;4985071;28;20026;-72
2023/04/05 03:25:40;;;;;;;17.48;9.25;;;;;;;-0.48;88.42;102046.63;5003028;28;20503;-72
2023/04/05 03:28:07;;;;;;;22.33;9.30;;;;;;;-0.49;89.04;102049.22;4999739;28;20393;-72
2023/04/05 03:30:37;;;;;;;17.05;8.35;;;;;;;-0.51;88.87;102044.19;4987981;28;20087;-72
2023/04/05 03:33:14;;;;;;;28.15;8.60;;;;;;;-0.53;89.40;102045.94;5003791;28;20112;-72
2023/04/05 03:35:45;;;;;;;16.33;8.55;;;;;;;-0.56;89.38;102050.34;5002246;28;20496;-73
2023/04/05 03:38:12;;;;;;;19.98;8.30;;;;;;;-0.59;89.85;102047.00;5006205;28;20496;-72
2023/04/05 03:40:45;;;;;;;23.08;8.98;;;;;;;-0.59;89.72;102047.00;4984971;28;20033;-73
2023/04/05 03:43:11;;;;;;;21.27;9.25;;;;;;;-0.61;89.72;102048.75;5001923;28;20025;-73
2023/04/05 03:45:37;;;;;;;17.95;9.07;;;;;;;-0.62;90.19;102039.47;5004387;28;20057;-72
2023/04/05 03:48:03;;;;;;;19.55;8.40;;;;;;;-0.63;89.96;102042.06;4999730;28;20041;-72
2023/04/05 03:50:28;;;;;;;19.20;8.65;;;;;;;-0.63;90.19;102049.72;5002606;28;20026;-72
2023/04/05 03:52:54;;;;;;;17.02;8.10;;;;;;;-0.65;89.99;102038.75;5004986;28;20076;-72
2023/04/05 03:55:20;;;;;;;19.92;8.85;;;;;;;-0.67;89.78;102037.97;5002464;28;20037;-72
2023/04/05 03:57:48;;;;;;;23.80;8.80;;;;;;;-0.68;89.89;102029.50;5002551;28;20494;-72
2023/04/05 04:00:23;;;;;;;19.23;9.13;;;;;;;-0.71;89.83;102042.34;5002072;28;20118;-72
2023/04/05 04:03:05;;;;;;;22.30;8.60;;;;;;;-0.72;89.80;102037.28;5002555;28;20121;-73
2023/04/05 04:05:34;;;;;;;19.48;9.25;;;;;;;-0.75;90.22;102033.13;5007075;28;20578;-72
2023/04/05 04:08:00;;;;;;;23.45;9.32;;;;;;;-0.76;90.07;102033.19;5003591;28;20320;-72
2023/04/05 04:10:25;;;;;;;18.10;8.70;;;;;;;-0.78;90.55;102035.78;4984457;28;20537;-73
2023/04/05 04:12:55;;;;;;;17.05;9.35;;;;;;;-0.82;90.31;102034.22;4995771;28;20125;-72
2023/04/05 04:15:26;;;;;;;18.27;9.23;;;;;;;-0.85;90.79;102031.78;5002901;28;20045;-72
2023/04/05 04:18:04;;;;;;;26.48;10.70;;;;;;;-0.86;90.90;102037.78;4989747;28;20044;-71
2023/04/05 04:20:41;;;;;;;17.75;8.80;;;;;;;-0.88;90.75;102031.91;4994702;28;20113;-72
2023/04/05 04:23:26;;;;;;;16.60;8.95;;;;;;;-0.90;91.03;102029.41;5002427;28;20115;-72
2023/04/05 04:26:10;;;;;;;16.52;8.30;;;;;;;-0.91;90.83;102035.34;5013488;28;20068;-72
2023/04/05 04:29:11;;;;;;;22.40;9.15;;;;;;;-0.93;91.19;102028.66;5003017;28;20108;-72
2023/04/05 04:31:49;;;;;;;23.45;8.27;;;;;;;-0.96;91.02;102028.75;4995726;28;20559;-72
2023/04/05 04:34:34;;;;;;;16.77;8.85;;;;;;;-1.00;91.12;102026.34;4996902;28;20030;-72
2023/04/05 04:37:17;;;;;;;26.27;9.30;;;;;;;-1.03;91.21;102026.41;4999275;28;20444;-70
2023/04/05 04:39:46;;;;;;;19.48;8.60;;;;;;;-1.04;91.82;102032.38;4999377;28;20057;-72
2023/04/05 04:42:32;;;;;;;28.27;10.38;;;;;;;-1.05;91.92;102027.38;5016511;28;20048;-72
2023/04/05 04:45:16;;;;;;;17.80;8.70;;;;;;;-1.08;91.87;102028.28;4996587;28;20037;-71
2023/04/05 04:47:46;;;;;;;19.67;8.55;;;;;;;-1.09;91.76;102030.88;4986817;28;20604;-72
2023/04/05 04:50:28;;;;;;;22.92;9.32;;;;;;;-1.15;92.20;102016.63;4996929;28;20030;-72
2023/04/05 04:52:54;;;;;;;21.45;9.05;;;;;;;-1.22;92.47;102027.91;5002126;28;20085;-71
2023/04/05 04:55:24;;;;;;;20.95;8.93;;;;;;;-1.26;92.48;102032.28;4999319;28;20018;-72
2023/04/05 04:57:51;;;;;;;19.85;8.82;;;;;;;-1.28;92.59;102034.03;5003644;28;20112;-71
2023/04/05 05:00:17;;;;;;;23.35;9.07;;;;;;;-1.28;93.03;102040.81;4998961;28;20034;-71
2023/04/05 05:02:43;;;;;;;22.83;8.77;;;;;;;-1.30;93.14;102037.50;5017568;28;20528;-72
2023/04/05 05:05:11;;;;;;;19.20;9.50;;;;;;;-1.31;93.23;102035.84;5002244;28;20042;-72
2023/04/05 05:07:40;;;;;;;19.88;9.55;;;;;;;-1.32;93.34;102029.91;4984214;28;20682;-71
2023/04/05 05:10:06;;;;;;;19.00;9.23;;;;;;;-1.32;93.38;102037.53;5002252;28;20964;-71
2023/04/05 05:12:33;;;;;;;22.55;8.82;;;;;;;-1.33;93.65;102035.06;5001099;28;20058;-72
2023/04/05 05:14:58;;;;;;;21.65;9.40;;;;;;;-1.34;93.86;102035.94;5003172;28;20045;-72
2023/04/05 05:17:24;;;;;;;20.42;9.93;;;;;;;-1.35;94.12;102029.19;5002592;28;20040;-71
2023/04/05 05:19:50;;;;;;;18.98;9.45;;;;;;;-1.36;94.33;102028.34;5000123;28;20038;-71
2023/04/05 05:22:16;;;;;;;22.33;9.35;;;;;;;-1.40;94.14;102030.16;5005689;28;20065;-71
2023/04/05 05:24:46;;;;;;;18.88;9.57;;;;;;;-1.43;94.46;102031.97;5003713;28;20155;-72
2023/04/05 05:27:12;;;;;;;20.60;9.48;;;;;;;-1.46;94.73;102034.63;4985658;28;20777;-71
2023/04/05 05:29:37;;;;;;;24.73;9.38;;;;;;;-1.46;95.11;102034.63;5020477;28;20041;-72
2023/04/05 05:32:03;;;;;;;24.83;10.20;;;;;;;-1.46;95.05;102032.06;5007757;28;20034;-71
2023/04/05 05:34:29;;;;;;;24.30;9.38;;;;;;;-1.46;95.47;102030.34;5003808;28;20480;-72
2023/04/05 05:36:56;;;;;;;20.30;9.60;;;;;;;-1.42;95.52;102033.63;5005603;28;20037;-72
2023/04/05 05:39:22;;;;;;;24.20;9.57;;;;;;;-1.42;95.53;102044.63;5000876;28;20022;-72
2023/04/05 05:41:48;;;;;;;21.00;9.40;;;;;;;-1.40;95.77;102027.59;5002898;28;20997;-71
2023/04/05 05:44:13;;;;;;;21.35;9.50;;;;;;;-1.38;95.27;102028.38;5016551;28;20407;-71
2023/04/05 05:46:39;;;;;;;22.38;9.38;;;;;;;-1.38;95.59;102028.38;5006802;28;20030;-70
2023/04/05 05:49:05;;;;;;;23.45;10.02;;;;;;;-1.37;95.56;102030.06;5003791;28;20038;-71
2023/04/05 05:51:31;;;;;;;23.75;9.65;;;;;;;-1.34;95.59;102034.22;5005768;28;20044;-72
2023/04/05 05:53:56;;;;;;;24.95;10.02;;;;;;;-1.32;95.93;102029.91;5013137;28;20033;-71
2023/04/05 05:56:22;;;;;;;21.50;10.57;;;;;;;-1.29;95.65;102039.19;4996847;28;20615;-73
2023/04/05 05:58:48;;;;;;;23.35;11.05;;;;;;;-1.29;95.99;102044.25;5007870;28;20030;-71
2023/04/05 06:01:13;;;;;;;30.02;11.88;;;;;;;-1.27;96.29;102035.69;5006755;28;20530;-71
2023/04/05 06:03:39;;;;;;;27.13;10.75;;;;;;;-1.23;96.52;102038.97;5022186;28;20065;-72
2023/04/05 06:06:07;;;;;;;21.73;9.48;;;;;;;-1.21;96.58;102047.38;5003878;28;20033;-72
2023/04/05 06:08:33;;;;;;;21.73;10.23;;;;;;;-1.19;96.86;102040.53;5016935;28;20088;-72
2023/04/05 06:10:58;;;;;;;22.25;10.68;;;;;;;-1.15;97.09;102037.00;5005817;28;20133;-72
2023/04/05 06:13:24;;;;;;;23.27;10.45;;;;;;;-1.11;96.89;102040.28;5018392;28;20065;-71
2023/04/05 06:15:50;;;;;;;23.27;10.15;;;;;;;-1.07;96.95;102041.88;4985822;28;20038;-72
2023/04/05 06:18:15;;;;;;;28.17;10.73;;;;;;;-1.04;96.83;102041.75;5004320;28;20515;-72
2023/04/05 06:20:43;;;;;;;20.00;9.77;;;;;;;-1.02;97.16;102035.75;5006712;28;20057;-72
2023/04/05 06:23:12;;;;;;;21.23;10.45;;;;;;;-0.97;96.82;102038.13;5007867;28;20034;-72
2023/04/05 06:25:38;;;;;;;20.05;9.60;;;;;;;-0.91;97.35;102039.63;5008680;28;20045;-73
2023/04/05 06:28:04;;;;;;;25.17;10.07;;;;;;;-0.85;97.58;102045.38;5001475;28;20065;-73
2023/04/05 06:30:31;;;;;;;24.55;10.95;;;;;;;-0.76;97.59;102041.66;5019420;28;20114;-73
2023/04/05 06:32:57;;;;;;;21.75;10.73;;;;;;;-0.68;97.47;102034.59;5021628;28;20038;-73
2023/04/05 06:35:23;;;;;;;23.08;10.48;;;;;;;-0.54;97.65;102036.66;5004678;28;20038;-72
2023/04/05 06:37:49;;;;;;;25.52;11.30;;;;;;;-0.37;97.44;102043.69;5004332;28;20648;-72
2023/04/05 06:40:16;;;;;;;27.63;11.27;;;;;;;-0.16;97.02;102039.53;5018492;28;20030;-73
2023/04/05 06:42:42;;;;;;;29.83;11.82;;;;;;;0.13;97.24;102041.03;5008548;28;20042;-73
2023/04/05 06:45:11;;;;;;;35.13;12.25;;;;;;;0.37;96.17;102035.84;5009345;28;20125;-74
2023/04/05 06:47:38;;;;;;;23.90;10.63;;;;;;;0.60;95.34;102042.59;4997805;28;20149;-73
2023/04/05 06:50:05;;;;;;;27.02;10.88;;;;;;;0.88;94.13;102042.31;5005372;28;20038;-72
2023/04/05 06:52:31;;;;;;;26.08;11.13;;;;;;;1.27;92.01;102033.06;5006457;28;20041;-73
2023/04/05 06:54:57;;;;;;;19.23;9.35;;;;;;;1.79;89.60;102033.34;4986866;28;20121;-72
2023/04/05 06:57:22;;;;;;;25.55;9.15;;;;;;;2.47;84.66;102020.81;5006246;28;20034;-73
2023/04/05 06:59:48;;;;;;;19.75;9.73;;;;;;;3.44;81.47;102028.78;4998689;28;20026;-73
2023/04/05 07:02:13;;;;;;;23.92;8.70;;;;;;;4.40;74.52;102019.34;5004984;28;20034;-74
2023/04/05 07:04:40;;;;;;;15.75;7.40;;;;;;;4.99;68.88;102011.72;5005937;28;20057;-73
2023/04/05 07:07:05;;;;;;;21.33;8.15;;;;;;;5.68;67.81;102004.16;5005291;28;20034;-73
2023/04/05 07:09:32;;;;;;;15.80;6.68;;;;;;;6.14;62.57;102008.19;5002111;28;20042;-73
2023/04/05 07:11:58;;;;;;;14.05;7.00;;;;;;;6.73;58.98;102000.94;5000637;28;20034;-73
2023/04/05 07:14:24;;;;;;;17.67;6.35;;;;;;;7.20;58.53;102004.66;5005566;28;20395;-74
2023/04/05 07:16:51;;;;;;;10.60;6.18;;;;;;;7.03;56.37;102004.97;5010953;28;20034;-73
2023/04/05 07:19:17;;;;;;;18.40;7.07;;;;;;;7.02;55.14;102004.13;5007339;28;20701;-73
2023/04/05 07:21:43;;;;;;;15.25;6.85;;;;;;;7.07;55.49;102003.03;5008649;28;21495;-74
2023/04/05 07:24:09;;;;;;;14.95;7.03;;;;;;;7.30;54.08;102009.19;5006906;28;20042;-74
2023/04/05 07:26:36;;;;;;;13.73;6.68;;;;;;;7.82;53.22;102002.13;5001562;28;20045;-73
2023/04/05 07:29:03;;;;;;;14.70;7.30;;;;;;;8.06;53.40;102010.75;5005818;28;20476;-74
2023/04/05 07:31:28;;;;;;;15.18;5.95;;;;;;;7.96;52.08;102009.75;5005835;28;20038;-74
2023/04/05 07:33:54;;;;;;;14.90;6.50;;;;;;;8.21;51.25;102008.78;5005679;28;20377;-74
2023/04/05 07:36:19;;;;;;;13.70;7.28;;;;;;;8.44;52.26;102006.34;4996204;28;20061;-75
2023/04/05 07:38:45;;;;;;;13.98;5.95;;;;;;;8.60;52.16;102009.44;5004521;28;20038;-75
2023/04/05 07:41:10;;;;;;;11.27;6.53;;;;;;;9.04;50.36;102001.88;5007987;28;20042;-74
2023/04/05 07:43:36;;;;;;;16.60;6.68;;;;;;;9.46;52.06;102007.31;5005615;28;20091;-75
2023/04/05 07:46:03;;;;;;;13.73;6.15;;;;;;;9.69;47.88;102008.09;5016588;28;20088;-76
2023/04/05 07:48:28;;;;;;;14.55;6.93;;;;;;;9.59;48.66;102008.00;4996590;28;20034;-75
2023/04/05 07:50:54;;;;;;;12.68;6.65;;;;;;;9.25;48.01;102008.00;5004584;28;20096;-74
2023/04/05 07:53:19;;;;;;;12.73;6.50;;;;;;;9.35;47.98;102010.72;5012176;28;20031;-75
2023/04/05 07:55:45;;;;;;;15.23;7.05;;;;;;;9.20;48.33;102009.31;4994389;28;20040;-74
2023/04/05 07:58:11;;;;;;;11.55;6.72;;;;;;;9.30;47.63;102011.06;5000241;28;20034;-76
2023/04/05 08:00:37;;;;;;;14.98;6.75;;;;;;;9.63;48.72;102014.56;4997572;28;20057;-75
2023/04/05 08:03:03;;;;;;;12.02;6.18;;;;;;;10.35;46.79;102012.38;5000175;28;20088;-75
2023/04/05 08:05:29;;;;;;;11.52;6.22;;;;;;;10.64;45.66;102008.25;5013384;28;20113;-75
2023/04/05 08:07:56;;;;;;;15.00;6.40;;;;;;;10.54;45.58;102011.72;5004752;28;20535;-75
2023/04/05 08:10:26;;;;;;;18.20;6.65;;;;;;;10.76;45.53;102015.94;5013535;28;20046;-75
2023/04/05 08:12:52;;;;;;;15.45;6.95;;;;;;;10.46;45.27;102013.16;5004978;28;21487;-74
2023/04/05 08:15:17;;;;;;;13.85;6.75;;;;;;;10.90;45.54;102010.41;5016635;28;20084;-75
2023/04/05 08:17:43;;;;;;;17.15;7.00;;;;;;;10.97;44.67;102003.75;5007023;28;20439;-75
2023/04/05 08:20:08;;;;;;;12.38;6.50;;;;;;;11.41;45.72;102008.72;5000783;28;20038;-75
2023/04/05 08:22:34;;;;;;;13.60;6.68;;;;;;;11.51;44.44;102009.59;4996603;28;20045;-74
2023/04/05 08:24:59;;;;;;;11.63;7.05;;;;;;;11.51;44.02;102009.59;5003456;28;20092;-76
2023/04/05 08:27:25;;;;;;;19.05;7.07;;;;;;;11.31;44.23;102006.09;5003597;28;20518;-75
2023/04/05 08:29:50;;;;;;;10.57;6.68;;;;;;;11.57;44.46;102009.03;5004974;28;20034;-75
2023/04/05 08:32:16;;;;;;;14.25;7.45;;;;;;;11.55;43.93;101997.97;4983026;28;20042;-76
2023/04/05 08:34:41;;;;;;;17.67;8.07;;;;;;;11.72;43.70;101996.50;5003617;28;20369;-75
2023/04/05 08:37:06;;;;;;;17.98;7.70;;;;;;;11.92;43.80;101996.53;5015060;28;20049;-75
2023/04/05 08:39:34;;;;;;;17.73;7.85;;;;;;;12.43;41.94;101992.81;4998572;28;20022;-75
2023/04/05 08:42:24;;;;;;;12.30;7.07;;;;;;;12.27;41.27;101998.59;5002702;28;20034;-75
2023/04/05 08:44:51;;;;;;;12.63;6.53;;;;;;;12.31;41.73;101994.78;5003426;28;20124;-76
2023/04/05 08:47:22;;;;;;;13.82;6.75;;;;;;;12.24;41.63;101991.91;5011710;28;20493;-76
2023/04/05 08:49:47;;;;;;;13.60;6.68;;;;;;;12.66;41.56;101994.16;5013333;28;20517;-75
2023/04/05 08:52:13;;;;;;;16.20;6.80;;;;;;;12.92;41.06;101984.91;5004145;28;20046;-75
2023/04/05 08:54:39;;;;;;;13.13;7.05;;;;;;;12.81;40.64;101986.75;5003065;28;20033;-76
2023/04/05 08:57:06;;;;;;;12.25;6.72;;;;;;;12.71;40.07;101992.91;5000397;28;20090;-75
2023/04/05 08:59:34;;;;;;;19.63;6.93;;;;;;;12.19;41.26;101998.47;5001475;28;20120;-75
2023/04/05 09:02:02;;;;;;;10.27;5.97;;;;;;;12.77;41.72;101984.53;5000112;28;20034;-76
2023/04/05 09:04:31;;;;;;;14.30;7.55;;;;;;;13.00;40.58;101991.06;5005252;28;20030;-75
2023/04/05 09:06:58;;;;;;;10.25;6.40;;;;;;;12.79;41.91;101988.66;5008369;28;20444;-76
2023/04/05 09:09:23;;;;;;;10.45;6.00;;;;;;;12.33;41.44;101992.03;5004707;28;20085;-75
2023/04/05 09:11:49;;;;;;;14.73;7.30;;;;;;;12.15;41.26;101987.53;5003926;28;20478;-75
2023/04/05 09:14:16;;;;;;;15.52;6.90;;;;;;;12.31;42.69;101986.16;5000412;28;20496;-76
2023/04/05 09:16:42;;;;;;;9.63;6.13;;;;;;;12.52;41.15;101979.00;5021370;28;20042;-76
2023/04/05 09:19:08;;;;;;;13.40;6.97;;;;;;;12.58;40.91;101980.22;5005537;28;20017;-77
2023/04/05 09:21:59;;;;;;;11.30;6.55;;;;;;;12.21;42.49;101980.97;5005279;28;20039;-76
2023/04/05 09:24:42;;;;;;;12.48;7.10;;;;;;;12.39;42.08;101976.69;5004888;28;20381;-76
2023/04/05 09:27:10;;;;;;;12.30;7.25;;;;;;;12.48;41.97;101985.44;5020058;28;20389;-75
2023/04/05 09:29:40;;;;;;;11.75;6.95;;;;;;;12.44;40.57;101977.09;5006034;28;20034;-76
2023/04/05 09:32:07;;;;;;;11.38;7.03;;;;;;;11.91;41.53;101979.31;4998777;28;21921;-75
2023/04/05 09:34:37;;;;;;;13.35;7.25;;;;;;;11.86;43.24;101972.69;5008083;28;20045;-75
2023/04/05 09:37:13;;;;;;;18.05;7.05;;;;;;;11.95;41.77;101971.09;5009539;28;20125;-75
2023/04/05 09:39:38;;;;;;;9.13;6.03;;;;;;;11.70;40.29;101982.81;5002220;28;20076;-75
2023/04/05 09:42:15;;;;;;;9.93;5.72;;;;;;;11.55;39.60;101979.78;4997827;28;20527;-75
2023/04/05 09:44:53;;;;;;;10.05;6.45;;;;;;;11.60;39.59;101979.38;5002734;28;20029;-77
2023/04/05 09:47:20;;;;;;;12.55;6.65;;;;;;;11.29;40.54;101977.66;4996432;28;20043;-76
2023/04/05 09:49:50;;;;;;;10.55;6.18;;;;;;;11.60;43.57;101980.22;4988622;28;20026;-76
2023/04/05 09:52:27;;;;;;;12.57;6.20;;;;;;;11.72;42.41;101970.50;5002633;28;20046;-75
2023/04/05 09:55:02;;;;;;;13.35;6.75;;;;;;;11.72;41.62;101975.72;5007846;28;20033;-75
2023/04/05 09:57:32;;;;;;;13.52;6.63;;;;;;;11.31;41.41;101977.53;5005247;28;20157;-76
2023/04/05 09:59:57;;;;;;;11.02;5.95;;;;;;;11.54;41.43;101978.13;4999292;28;20517;-76
2023/04/05 10:02:24;;;;;;;10.48;6.38;;;;;;;11.64;41.95;101960.78;5005859;28;20049;-75
2023/04/05 10:04:50;;;;;;;10.32;6.18;;;;;;;11.35;40.22;101973.72;4989220;28;20033;-75
2023/04/05 10:07:17;;;;;;;9.95;6.63;;;;;;;11.52;43.26;101974.84;4989201;28;20415;-75
2023/04/05 10:09:45;;;;;;;11.80;5.75;;;;;;;11.52;40.88;101972.25;5003020;28;20113;-75
2023/04/05 10:12:15;;;;;;;10.25;5.55;;;;;;;11.91;40.05;101958.53;5004502;28;20073;-75
2023/04/05 10:14:41;;;;;;;16.90;6.95;;;;;;;11.85;39.37;101955.47;4982154;28;20034;-76
2023/04/05 10:17:30;;;;;;;9.15;5.93;;;;;;;11.68;40.04;101953.56;4999063;28;20057;-76
2023/04/05 10:20:13;;;;;;;12.13;5.57;;;;;;;11.29;38.29;101953.47;5006519;28;20488;-75
2023/04/05 10:22:42;;;;;;;14.52;5.88;;;;;;;11.42;39.46;101950.66;5012254;28;20049;-76
2023/04/05 10:25:31;;;;;;;9.98;5.03;;;;;;;11.46;38.89;101957.22;5007432;28;20484;-75
2023/04/05 10:28:05;;;;;;;12.40;6.30;;;;;;;11.53;39.20;101944.50;5002776;28;20045;-74
2023/04/05 10:30:54;;;;;;;10.63;5.53;;;;;;;11.24;39.57;101947.84;5003367;28;20109;-75
2023/04/05 10:33:46;;;;;;;8.57;5.70;;;;;;;11.28;40.38;101941.44;5016645;28;20036;-76
2023/04/05 10:36:39;;;;;;;11.23;5.75;;;;;;;11.83;41.66;101946.19;5007110;28;20054;-75
2023/04/05 10:39:27;;;;;;;10.20;5.95;;;;;;;11.96;37.93;101944.16;4977159;28;20041;-76
2023/04/05 10:41:59;;;;;;;11.70;6.05;;;;;;;12.00;38.85;101942.94;5001976;28;20042;-76
2023/04/05 10:44:25;;;;;;;11.32;6.05;;;;;;;12.03;40.47;101939.22;5002177;28;20447;-76
2023/04/05 10:46:52;;;;;;;10.77;6.22;;;;;;;12.07;41.20;101937.97;5016406;28;20046;-75
2023/04/05 10:49:25;;;;;;;15.50;6.32;;;;;;;12.09;40.25;101941.25;5015053;28;20504;-76
2023/04/05 10:51:51;;;;;;;9.05;6.35;;;;;;;12.19;38.61;101931.69;5002768;28;20159;-75
2023/04/05 10:54:19;;;;;;;10.20;5.57;;;;;;;12.21;39.27;101926.34;5006782;28;20445;-76
2023/04/05 10:56:44;;;;;;;13.27;6.82;;;;;;;12.19;39.42;101926.50;5003334;28;20053;-76
2023/04/05 10:59:12;;;;;;;23.13;11.07;;;;;;;12.38;38.31;101924.81;4997806;28;20485;-76
2023/04/05 11:01:39;;;;;;;20.48;7.75;;;;;;;11.86;39.62;101914.72;5004314;28;20037;-76
2023/04/05 11:04:13;;;;;;;9.27;5.97;;;;;;;12.16;39.33;101912.94;4989622;28;20103;-76
2023/04/05 11:06:39;;;;;;;31.80;14.15;;;;;;;12.23;39.32;101907.03;5007399;28;20068;-76
2023/04/05 11:09:17;;;;;;;15.60;6.32;;;;;;;11.87;38.19;101917.19;5001344;28;20401;-76
2023/04/05 11:11:48;;;;;;;14.00;6.93;;;;;;;11.90;40.94;101907.50;4999381;28;20053;-75
2023/04/05 11:14:25;;;;;;;9.93;6.43;;;;;;;11.88;41.37;101903.25;5004656;28;20394;-76
2023/04/05 11:16:58;;;;;;;10.73;5.97;;;;;;;12.05;39.31;101900.91;5015049;28;20101;-76
2023/04/05 11:19:42;;;;;;;15.75;7.07;;;;;;;12.04;38.16;101902.69;5003538;28;20093;-77
2023/04/05 11:22:08;;;;;;;11.75;7.20;;;;;;;12.29;40.12;101907.44;5022782;28;20054;-76
2023/04/05 11:24:56;;;;;;;13.27;7.53;;;;;;;12.42;39.45;101903.56;5003714;28;20045;-76
2023/04/05 11:27:33;;;;;;;39.17;16.17;;;;;;;12.19;37.98;101900.50;5001773;28;20046;-75
2023/04/05 11:30:00;;;;;;;19.13;9.60;;;;;;;12.18;38.23;101900.63;5017253;28;20092;-76